Flight Briefing for CMB843

Departure Arrival
Naval Station Rota (LERT)
Click to view FAA NOTAMS
NAS Sigonella (LICZ)
Click to view FAA NOTAMS
Departure Time Arrival Time
N/A N/A
Aircraft Distance
B757-200SF 1021nm
Departure METAR Arrival METAR
LERT 261000Z 10022G34KT CAVOK 22/08 Q1011 NOSIG LICZ 260955Z 24017KT CAVOK 19/07 Q1011 RMK SKC VIS MIN 9999 WIND THR28 26014KT WIND THR10 24014KT A2988 BLU
Suggested Route
MGA2Z MGA UN851 MHN UM603 ORKUM M603 ALG M732 CAR M871 LIBRO LIBRO2N


View recent IFR Routes data
Notes
USTRANSCOM CONTRACT FLIGHT

Charts and Procedures

Charts for LERT
No chart available
Charts for LICZ
No chart available

Windy.com Weather Map